This is the latest recevied weather packets stored in our database for station/object W1GK. If no packets are shown the sender has not sent any weather packets the latest 10 day(s).
| Time | Temp. | Humidity | Pressure | Rain* | Wind** | Luminosity | Snow |
|---|---|---|---|---|---|---|---|
| 1777992599 | 15° C | 42% | 1011.1 hPa | 0 mm | - | 424 W/m² | - |
| 1777991998 | 15° C | 44% | 1011.1 hPa | 0 mm | - | 371 W/m² | - |
| 1777991398 | 14.44° C | 45% | 1011.1 hPa | 0 mm | - | 346 W/m² | - |
| 1777990799 | 13.89° C | 46% | 1011 hPa | 0 mm | - | 308 W/m² | - |
| 1777989599 | 13.33° C | 47% | 1010.8 hPa | 0 mm | - | 195 W/m² | - |
| 1777988999 | 12.78° C | 48% | 1010.7 hPa | 0 mm | - | 163 W/m² | - |
| 1777988399 | 12.78° C | 48% | 1010.7 hPa | 0 mm | - | 135 W/m² | - |
| 1777987798 | 12.22° C | 49% | 1010.5 hPa | 0 mm | - | 107 W/m² | - |
| 1777987199 | 12.22° C | 50% | 1010.5 hPa | 0 mm | - | 21 W/m² | - |
| 1777986599 | 12.22° C | 49% | 1010.4 hPa | 0 mm | - | 16 W/m² | - |
| 1777985998 | 12.22° C | 49% | 1010.4 hPa | 0 mm | - | 12 W/m² | - |
| 1777985396 | 12.22° C | 49% | 1010.3 hPa | 0 mm | - | 7 W/m² | - |
| 1777984798 | 12.22° C | 49% | 1010.3 hPa | 0 mm | - | 0 W/m² | - |
| 1777984197 | 12.22° C | 49% | 1010.3 hPa | 0 mm | - | 0 W/m² | - |
| 1777983598 | 12.22° C | 50% | 1010.2 hPa | 0 mm | - | 0 W/m² | - |
| 1777982997 | 12.22° C | 50% | 1010.3 hPa | 0 mm | - | 0 W/m² | - |
| 1777982400 | 12.22° C | 49% | 1010.2 hPa | 0 mm | - | 0 W/m² | - |
| 1777981797 | 12.22° C | 49% | 1010.3 hPa | 0 mm | - | 0 W/m² | - |
| 1777981199 | 12.22° C | 48% | 1010.3 hPa | 0 mm | - | 0 W/m² | - |
| 1777980598 | 12.78° C | 48% | 1010.3 hPa | 0 mm | - | 0 W/m² | - |
| 1777979998 | 12.78° C | 47% | 1010.3 hPa | 0 mm | - | 0 W/m² | - |
| 1777979398 | 12.78° C | 47% | 1010.2 hPa | 0 mm | - | 0 W/m² | - |
| 1777978797 | 12.78° C | 47% | 1010.1 hPa | 0 mm | - | 0 W/m² | - |
| 1777978196 | 12.78° C | 46% | 1010.1 hPa | 0 mm | - | 0 W/m² | - |
| 1777977596 | 12.78° C | 46% | 1010 hPa | 0 mm | - | 0 W/m² | - |
* Rain latest hour (hover to see other rain measurements)
** Current wind speed in m/s (hover to see current wind gust speed)